Darstellungsparameter: Aktuell verwendete Einstellungen:
Skalierung der Graphiken ... ?
xyx+y,   Skalierungsfaktor:      Skalierung: Modus: x, Faktor: 1
Darstellungszeitraum ... ?
Vom - - bis: - -   Zeitraum: 18.11.2019 - 19.11.2019
Min/Max/Avg-Anzeige ... ?
Zeige MMA aktuell
Zeige MMA Monat
Zeige MMA alles
Zeige --A aktuell
Zeige --A Monat
Zeige --A alles
Keine MMA-Anzeige
MMA:
Average (ber die Originaldaten)
MMA-Basis: 18.11.2019 - 19.11.2019
Quicknavigation für Darstellung... ?
Tage:      1T, 2T, 3T, 5T -1T -2T -3T -5T +1T +2T +3T +5T
Wochen: 1W, 2W, 3W -1W -2W -3W +1W +2W +3W
Monate: 1M, 3M, 6M -1M -3M -6M +1M +3M +6M
Jahre:    1J, 3J, 5J, 10J -1J -3J -5J -10J +1J +3J +5J +10J
Nutze für die Darstellung ... ?
Originaldaten oder Mittelwerte auf ...
Stundenbasis Tagesbasis Wochenbasis
Monatsbasis Jahresbasis      Datenbasis: Original-Daten
Darstellen als:
Statistik (Auto) Statistik J:M      Darstellung:
Zur Graphik,    zurück zur Übersicht aller Sensoren.
 
Tabellarische Datenbersicht: ?
 
Sensor: Nr:Datum:Temp:Abs-Feuchte:Windchill:Wind:
Aussen-T/F 1 18-11-2019 00:00:00 4.5 C 6.38 g/m*3 4.5 C 3.2 km/h
2 18-11-2019 00:05:00 4.5 C 6.38 g/m*3 4.5 C 3.2 km/h
3 18-11-2019 00:10:00 4.4 C 6.33 g/m*3 4.4 C 3.2 km/h
4 18-11-2019 00:15:00 4.4 C 6.33 g/m*3 4.4 C 3.2 km/h
5 18-11-2019 00:20:00 4.4 C 6.33 g/m*3 4.4 C 1.6 km/h
6 18-11-2019 00:25:00 4.4 C 6.33 g/m*3 2.01 C 9.7 km/h
7 18-11-2019 00:30:00 4.4 C 6.33 g/m*3 2.01 C 9.7 km/h
8 18-11-2019 00:35:00 4.3 C 6.29 g/m*3 2.29 C 8.1 km/h
9 18-11-2019 00:40:00 4.3 C 6.29 g/m*3 2.29 C 8.1 km/h
10 18-11-2019 00:45:00 4.3 C 6.29 g/m*3 2.78 C 6.4 km/h
11 18-11-2019 00:50:00 4.3 C 6.29 g/m*3 4.3 C 4.8 km/h
12 18-11-2019 00:55:00 4.3 C 6.29 g/m*3 4.3 C 4.8 km/h
13 18-11-2019 01:00:00 4.2 C 6.25 g/m*3 2.67 C 6.4 km/h
14 18-11-2019 01:05:00 4.2 C 6.25 g/m*3 2.67 C 6.4 km/h
15 18-11-2019 01:10:00 4.2 C 6.25 g/m*3 2.67 C 6.4 km/h
16 18-11-2019 01:15:00 4.2 C 6.25 g/m*3 2.67 C 6.4 km/h
17 18-11-2019 01:20:00 4.2 C 6.25 g/m*3 2.17 C 8.1 km/h
18 18-11-2019 01:25:00 4.2 C 6.25 g/m*3 2.67 C 6.4 km/h
19 18-11-2019 01:30:00 4.2 C 6.25 g/m*3 4.2 C 4.8 km/h
20 18-11-2019 01:35:00 4.2 C 6.25 g/m*3 4.2 C 4.8 km/h
21 18-11-2019 01:40:00 4.2 C 6.25 g/m*3 1.43 C 11.3 km/h
22 18-11-2019 01:45:00 4.2 C 6.25 g/m*3 4.2 C 3.2 km/h
23 18-11-2019 01:50:00 4.2 C 6.25 g/m*3 4.2 C 3.2 km/h
24 18-11-2019 01:55:00 4.2 C 6.25 g/m*3 2.17 C 8.1 km/h
25 18-11-2019 02:00:00 4.2 C 6.25 g/m*3 4.2 C 1.6 km/h
Sensor: Nr:Datum:Temp:Abs-Feuchte:Windchill:Wind:
Aussen-T/F 26 18-11-2019 02:05:00 4.2 C 6.25 g/m*3 4.2 C 3.2 km/h
27 18-11-2019 02:10:00 4.2 C 6.25 g/m*3 4.2 C 1.6 km/h
28 18-11-2019 02:15:00 4.2 C 6.25 g/m*3 2.17 C 8.1 km/h
29 18-11-2019 02:20:00 4.2 C 6.25 g/m*3 2.67 C 6.4 km/h
30 18-11-2019 02:25:00 4.2 C 6.25 g/m*3 4.2 C 0 km/h
31 18-11-2019 02:30:00 4.2 C 6.25 g/m*3 2.67 C 6.4 km/h
32 18-11-2019 02:35:00 4.2 C 6.25 g/m*3 4.2 C 4.8 km/h
33 18-11-2019 02:40:00 4.2 C 6.25 g/m*3 4.2 C 4.8 km/h
34 18-11-2019 02:45:00 4.2 C 6.25 g/m*3 1.77 C 9.7 km/h
35 18-11-2019 02:50:00 4.2 C 6.25 g/m*3 4.2 C 3.2 km/h
36 18-11-2019 02:55:00 4.2 C 6.25 g/m*3 4.2 C 3.2 km/h
37 18-11-2019 03:00:00 4.2 C 6.25 g/m*3 4.2 C 4.8 km/h
38 18-11-2019 03:05:00 4.2 C 6.25 g/m*3 4.2 C 1.6 km/h
39 18-11-2019 03:10:00 4.2 C 6.25 g/m*3 4.2 C 3.2 km/h
40 18-11-2019 03:15:00 4.2 C 6.25 g/m*3 4.2 C 0 km/h
41 18-11-2019 03:20:00 4.2 C 6.25 g/m*3 4.2 C 0 km/h
42 18-11-2019 03:25:00 4.2 C 6.25 g/m*3 4.2 C 1.6 km/h
43 18-11-2019 03:30:00 4.2 C 6.25 g/m*3 4.2 C 4.8 km/h
44 18-11-2019 03:35:00 4.2 C 6.25 g/m*3 4.2 C 3.2 km/h
45 18-11-2019 03:40:00 4.2 C 6.25 g/m*3 4.2 C 3.2 km/h
46 18-11-2019 03:45:00 4.2 C 6.25 g/m*3 2.67 C 6.4 km/h
47 18-11-2019 03:50:00 4.2 C 6.25 g/m*3 4.2 C 0 km/h
48 18-11-2019 03:55:00 4.2 C 6.25 g/m*3 2.67 C 6.4 km/h
49 18-11-2019 04:00:00 4.2 C 6.25 g/m*3 1.43 C 11.3 km/h
50 18-11-2019 04:05:00 4.2 C 6.25 g/m*3 4.2 C 1.6 km/h
Sensor: Nr:Datum:Temp:Abs-Feuchte:Windchill:Wind:
Aussen-T/F 51 18-11-2019 04:10:00 4.2 C 6.25 g/m*3 4.2 C 4.8 km/h
52 18-11-2019 04:15:00 4.2 C 6.25 g/m*3 4.2 C 1.6 km/h
53 18-11-2019 04:20:00 4.2 C 6.25 g/m*3 2.67 C 6.4 km/h
54 18-11-2019 04:25:00 4.2 C 6.25 g/m*3 2.67 C 6.4 km/h
55 18-11-2019 04:30:00 4.2 C 6.25 g/m*3 4.2 C 1.6 km/h
56 18-11-2019 04:35:00 4.2 C 6.25 g/m*3 4.2 C 0 km/h
57 18-11-2019 04:40:00 4.2 C 6.25 g/m*3 4.2 C 3.2 km/h
58 18-11-2019 04:45:00 4.2 C 6.25 g/m*3 4.2 C 3.2 km/h
59 18-11-2019 04:50:00 4.2 C 6.25 g/m*3 4.2 C 4.8 km/h
60 18-11-2019 04:55:00 4.2 C 6.25 g/m*3 4.2 C 3.2 km/h
61 18-11-2019 05:00:00 4.2 C 6.25 g/m*3 4.2 C 0 km/h
62 18-11-2019 05:05:00 4.2 C 6.25 g/m*3 4.2 C 4.8 km/h
63 18-11-2019 05:10:00 4.2 C 6.25 g/m*3 4.2 C 3.2 km/h
64 18-11-2019 05:15:00 4.2 C 6.25 g/m*3 4.2 C 3.2 km/h
65 18-11-2019 05:20:00 4.2 C 6.25 g/m*3 4.2 C 1.6 km/h
66 18-11-2019 05:25:00 4.2 C 6.25 g/m*3 4.2 C 4.8 km/h
67 18-11-2019 05:30:00 4.2 C 6.25 g/m*3 4.2 C 0 km/h
68 18-11-2019 05:35:00 4.2 C 6.25 g/m*3 4.2 C 0 km/h
69 18-11-2019 05:40:00 4.2 C 6.25 g/m*3 4.2 C 3.2 km/h
70 18-11-2019 05:45:00 4.1 C 6.21 g/m*3 4.1 C 0 km/h
71 18-11-2019 05:50:00 4.1 C 6.21 g/m*3 4.1 C 0 km/h
72 18-11-2019 05:55:00 4.1 C 6.21 g/m*3 4.1 C 0 km/h
73 18-11-2019 06:00:00 4.1 C 6.21 g/m*3 4.1 C 0 km/h
74 18-11-2019 06:05:00 4.1 C 6.21 g/m*3 4.1 C 0 km/h
75 18-11-2019 06:10:00 4.1 C 6.21 g/m*3 4.1 C 0 km/h
Sensor: Nr:Datum:Temp:Abs-Feuchte:Windchill:Wind:
Aussen-T/F 76 18-11-2019 06:15:00 4.1 C 6.21 g/m*3 4.1 C 0 km/h
77 18-11-2019 06:20:00 4.1 C 6.21 g/m*3 4.1 C 0 km/h
78 18-11-2019 06:25:00 4.1 C 6.21 g/m*3 4.1 C 0 km/h
79 18-11-2019 06:30:00 4.1 C 6.21 g/m*3 4.1 C 0 km/h
80 18-11-2019 06:35:00 4.1 C 6.21 g/m*3 4.1 C 0 km/h
81 18-11-2019 06:40:00 4.1 C 6.21 g/m*3 4.1 C 0 km/h
82 18-11-2019 06:45:00 4.1 C 6.21 g/m*3 4.1 C 1.6 km/h
83 18-11-2019 06:50:00 4.1 C 6.21 g/m*3 4.1 C 4.8 km/h
84 18-11-2019 06:55:00 4.1 C 6.21 g/m*3 4.1 C 0 km/h
85 18-11-2019 07:00:00 4.1 C 6.21 g/m*3 4.1 C 0 km/h
86 18-11-2019 07:05:00 4.1 C 6.21 g/m*3 4.1 C 1.6 km/h
87 18-11-2019 07:10:00 4.1 C 6.21 g/m*3 4.1 C 0 km/h
88 18-11-2019 07:15:00 4 C 6.17 g/m*3 4 C 0 km/h
89 18-11-2019 07:20:00 4 C 6.17 g/m*3 4 C 3.2 km/h
90 18-11-2019 07:25:00 4.1 C 6.21 g/m*3 4.1 C 0 km/h
91 18-11-2019 07:30:00 4.1 C 6.21 g/m*3 4.1 C 0 km/h
92 18-11-2019 07:35:00 4.1 C 6.21 g/m*3 4.1 C 0 km/h
93 18-11-2019 07:40:00 4.1 C 6.21 g/m*3 4.1 C 0 km/h
94 18-11-2019 07:45:00 4.1 C 6.21 g/m*3 4.1 C 0 km/h
95 18-11-2019 07:50:00 4.1 C 6.21 g/m*3 4.1 C 0 km/h
96 18-11-2019 07:55:00 4.1 C 6.21 g/m*3 4.1 C 0 km/h
97 18-11-2019 08:00:00 4.1 C 6.21 g/m*3 4.1 C 0 km/h
98 18-11-2019 08:05:00 4.1 C 6.21 g/m*3 4.1 C 0 km/h
99 18-11-2019 08:10:00 4.1 C 6.21 g/m*3 4.1 C 0 km/h
100 18-11-2019 08:15:00 4.1 C 6.21 g/m*3 4.1 C 0 km/h
Sensor: Nr:Datum:Temp:Abs-Feuchte:Windchill:Wind:
Aussen-T/F 101 18-11-2019 08:20:00 4.1 C 6.21 g/m*3 4.1 C 0 km/h
102 18-11-2019 08:25:00 4.1 C 6.21 g/m*3 4.1 C 0 km/h
103 18-11-2019 08:30:00 4.1 C 6.21 g/m*3 4.1 C 0 km/h
104 18-11-2019 08:35:00 4.2 C 6.25 g/m*3 4.2 C 0 km/h
105 18-11-2019 08:40:00 4.2 C 6.25 g/m*3 4.2 C 0 km/h
106 18-11-2019 08:45:00 4.2 C 6.25 g/m*3 4.2 C 0 km/h
107 18-11-2019 08:50:00 4.2 C 6.25 g/m*3 4.2 C 0 km/h
108 18-11-2019 08:55:00 4.2 C 6.25 g/m*3 4.2 C 0 km/h
109 18-11-2019 09:00:00 4.2 C 6.25 g/m*3 4.2 C 0 km/h
110 18-11-2019 09:05:00 4.3 C 6.29 g/m*3 4.3 C 0 km/h
111 18-11-2019 09:10:00 4.3 C 6.29 g/m*3 4.3 C 0 km/h
112 18-11-2019 09:15:00 4.3 C 6.29 g/m*3 4.3 C 0 km/h
113 18-11-2019 09:20:00 4.3 C 6.29 g/m*3 4.3 C 0 km/h
114 18-11-2019 09:25:00 4.3 C 6.29 g/m*3 4.3 C 0 km/h
115 18-11-2019 09:30:00 4.4 C 6.33 g/m*3 4.4 C 0 km/h
116 18-11-2019 09:35:00 4.4 C 6.33 g/m*3 4.4 C 0 km/h
117 18-11-2019 09:40:00 4.5 C 6.38 g/m*3 4.5 C 0 km/h
118 18-11-2019 09:45:00 4.6 C 6.42 g/m*3 4.6 C 0 km/h
119 18-11-2019 09:50:00 4.6 C 6.42 g/m*3 4.6 C 1.6 km/h
120 18-11-2019 09:55:00 4.7 C 6.53 g/m*3 4.7 C 0 km/h
121 18-11-2019 10:00:00 4.7 C 6.53 g/m*3 4.7 C 0 km/h
122 18-11-2019 10:05:00 4.8 C 6.57 g/m*3 4.8 C 0 km/h
123 18-11-2019 10:10:00 4.8 C 6.57 g/m*3 4.8 C 0 km/h
124 18-11-2019 10:15:00 4.8 C 6.5 g/m*3 4.8 C 0 km/h
125 18-11-2019 10:20:00 4.9 C 6.55 g/m*3 4.9 C 0 km/h
Sensor: Nr:Datum:Temp:Abs-Feuchte:Windchill:Wind:
Aussen-T/F 126 18-11-2019 10:25:00 4.9 C 6.55 g/m*3 4.9 C 0 km/h
127 18-11-2019 10:30:00 4.9 C 6.62 g/m*3 4.9 C 0 km/h
128 18-11-2019 10:35:00 4.9 C 6.62 g/m*3 4.9 C 1.6 km/h
129 18-11-2019 10:40:00 4.9 C 6.62 g/m*3 4.9 C 0 km/h
130 18-11-2019 10:45:00 4.9 C 6.62 g/m*3 4.9 C 0 km/h
131 18-11-2019 10:50:00 5 C 6.66 g/m*3 5 C 0 km/h
132 18-11-2019 10:55:00 4.9 C 6.55 g/m*3 4.9 C 1.6 km/h
133 18-11-2019 11:00:00 4.9 C 6.55 g/m*3 4.9 C 0 km/h
134 18-11-2019 11:05:00 4.9 C 6.55 g/m*3 4.9 C 0 km/h
135 18-11-2019 11:10:00 4.9 C 6.55 g/m*3 4.9 C 0 km/h
136 18-11-2019 11:15:00 4.9 C 6.55 g/m*3 4.9 C 0 km/h
137 18-11-2019 11:20:00 4.9 C 6.55 g/m*3 4.9 C 0 km/h
138 18-11-2019 11:25:00 5 C 6.59 g/m*3 5 C 0 km/h
139 18-11-2019 11:30:00 5 C 6.59 g/m*3 5 C 1.6 km/h
140 18-11-2019 11:35:00 5.1 C 6.63 g/m*3 5.1 C 1.6 km/h
141 18-11-2019 11:40:00 5.1 C 6.63 g/m*3 5.1 C 1.6 km/h
142 18-11-2019 11:45:00 5.1 C 6.63 g/m*3 5.1 C 0 km/h
143 18-11-2019 11:50:00 5.2 C 6.68 g/m*3 5.2 C 0 km/h
144 18-11-2019 11:55:00 5.3 C 6.72 g/m*3 3.94 C 6.4 km/h
145 18-11-2019 12:00:00 5.3 C 6.72 g/m*3 5.3 C 1.6 km/h
146 18-11-2019 12:05:00 5.3 C 6.72 g/m*3 3.94 C 6.4 km/h
147 18-11-2019 12:10:00 5.3 C 6.72 g/m*3 5.3 C 4.8 km/h
148 18-11-2019 12:15:00 5.3 C 6.72 g/m*3 5.3 C 3.2 km/h
149 18-11-2019 12:20:00 5.3 C 6.72 g/m*3 3.94 C 6.4 km/h
150 18-11-2019 12:25:00 5.3 C 6.72 g/m*3 5.3 C 3.2 km/h
Sensor: Nr:Datum:Temp:Abs-Feuchte:Windchill:Wind:
Aussen-T/F 151 18-11-2019 12:30:00 5.3 C 6.72 g/m*3 5.3 C 1.6 km/h
152 18-11-2019 12:35:00 5.3 C 6.65 g/m*3 3.94 C 6.4 km/h
153 18-11-2019 12:40:00 5.3 C 6.65 g/m*3 5.3 C 4.8 km/h
154 18-11-2019 12:45:00 5.3 C 6.65 g/m*3 5.3 C 0 km/h
155 18-11-2019 12:50:00 5.3 C 6.72 g/m*3 5.3 C 1.6 km/h
156 18-11-2019 12:55:00 5.4 C 6.7 g/m*3 5.4 C 1.6 km/h
157 18-11-2019 13:00:00 5.4 C 6.7 g/m*3 5.4 C 3.2 km/h
158 18-11-2019 13:05:00 5.4 C 6.7 g/m*3 5.4 C 1.6 km/h
159 18-11-2019 13:10:00 5.3 C 6.65 g/m*3 5.3 C 3.2 km/h
160 18-11-2019 13:15:00 5.3 C 6.65 g/m*3 5.3 C 0 km/h
161 18-11-2019 13:20:00 5.4 C 6.7 g/m*3 5.4 C 3.2 km/h
162 18-11-2019 13:25:00 5.3 C 6.65 g/m*3 5.3 C 4.8 km/h
163 18-11-2019 13:30:00 5.3 C 6.65 g/m*3 5.3 C 4.8 km/h
164 18-11-2019 13:35:00 5.3 C 6.65 g/m*3 5.3 C 4.8 km/h
165 18-11-2019 13:40:00 5.4 C 6.7 g/m*3 5.4 C 3.2 km/h
166 18-11-2019 13:45:00 5.3 C 6.65 g/m*3 5.3 C 4.8 km/h
167 18-11-2019 13:50:00 5.3 C 6.65 g/m*3 5.3 C 4.8 km/h
168 18-11-2019 13:55:00 5.3 C 6.65 g/m*3 5.3 C 3.2 km/h
169 18-11-2019 14:00:00 5.4 C 6.7 g/m*3 5.4 C 0 km/h
170 18-11-2019 14:05:00 5.4 C 6.7 g/m*3 5.4 C 1.6 km/h
171 18-11-2019 14:10:00 5.4 C 6.63 g/m*3 5.4 C 4.8 km/h
172 18-11-2019 14:15:00 5.4 C 6.7 g/m*3 5.4 C 3.2 km/h
173 18-11-2019 14:20:00 5.4 C 6.7 g/m*3 4.06 C 6.4 km/h
174 18-11-2019 14:25:00 5.4 C 6.63 g/m*3 5.4 C 3.2 km/h
175 18-11-2019 14:30:00 5.4 C 6.63 g/m*3 4.06 C 6.4 km/h
Sensor: Nr:Datum:Temp:Abs-Feuchte:Windchill:Wind:
Aussen-T/F 176 18-11-2019 14:35:00 5.3 C 6.58 g/m*3 3.94 C 6.4 km/h
177 18-11-2019 14:40:00 5.3 C 6.58 g/m*3 5.3 C 4.8 km/h
178 18-11-2019 14:45:00 5.3 C 6.58 g/m*3 5.3 C 3.2 km/h
179 18-11-2019 14:50:00 5.3 C 6.58 g/m*3 5.3 C 3.2 km/h
180 18-11-2019 14:55:00 5.3 C 6.58 g/m*3 5.3 C 4.8 km/h
181 18-11-2019 15:00:00 5.2 C 6.54 g/m*3 5.2 C 3.2 km/h
182 18-11-2019 15:05:00 5.2 C 6.54 g/m*3 5.2 C 1.6 km/h
183 18-11-2019 15:10:00 5.3 C 6.58 g/m*3 5.3 C 1.6 km/h
184 18-11-2019 15:15:00 5.3 C 6.58 g/m*3 5.3 C 1.6 km/h
185 18-11-2019 15:20:00 5.2 C 6.54 g/m*3 5.2 C 3.2 km/h
186 18-11-2019 15:25:00 5.2 C 6.54 g/m*3 5.2 C 4.8 km/h
187 18-11-2019 15:30:00 5.2 C 6.54 g/m*3 5.2 C 4.8 km/h
188 18-11-2019 15:35:00 5.2 C 6.54 g/m*3 5.2 C 4.8 km/h
189 18-11-2019 15:40:00 5.2 C 6.54 g/m*3 3.82 C 6.4 km/h
190 18-11-2019 15:45:00 5.1 C 6.5 g/m*3 5.1 C 1.6 km/h
191 18-11-2019 15:50:00 5.1 C 6.5 g/m*3 5.1 C 4.8 km/h
192 18-11-2019 15:55:00 5.1 C 6.5 g/m*3 5.1 C 4.8 km/h
193 18-11-2019 16:00:00 5 C 6.46 g/m*3 3.11 C 8.1 km/h
194 18-11-2019 16:05:00 5 C 6.46 g/m*3 5 C 3.2 km/h
195 18-11-2019 16:10:00 4.9 C 6.41 g/m*3 4.9 C 4.8 km/h
196 18-11-2019 16:15:00 4.9 C 6.41 g/m*3 4.9 C 1.6 km/h
197 18-11-2019 16:20:00 4.9 C 6.41 g/m*3 4.9 C 4.8 km/h
198 18-11-2019 16:25:00 4.9 C 6.41 g/m*3 2.99 C 8.1 km/h
199 18-11-2019 16:30:00 4.8 C 6.37 g/m*3 2.49 C 9.7 km/h
200 18-11-2019 16:35:00 4.8 C 6.37 g/m*3 4.8 C 3.2 km/h
Sensor: Nr:Datum:Temp:Abs-Feuchte:Windchill:Wind:
Aussen-T/F 201 18-11-2019 16:40:00 4.8 C 6.37 g/m*3 4.8 C 0 km/h
202 18-11-2019 16:45:00 4.8 C 6.37 g/m*3 4.8 C 0 km/h
203 18-11-2019 16:50:00 4.8 C 6.37 g/m*3 4.8 C 1.6 km/h
204 18-11-2019 16:55:00 4.8 C 6.37 g/m*3 3.36 C 6.4 km/h
205 18-11-2019 17:00:00 4.8 C 6.37 g/m*3 4.8 C 3.2 km/h
206 18-11-2019 17:05:00 4.8 C 6.37 g/m*3 2.87 C 8.1 km/h
207 18-11-2019 17:10:00 4.8 C 6.37 g/m*3 3.36 C 6.4 km/h
208 18-11-2019 17:15:00 4.8 C 6.37 g/m*3 3.36 C 6.4 km/h
209 18-11-2019 17:20:00 4.8 C 6.37 g/m*3 2.87 C 8.1 km/h
210 18-11-2019 17:25:00 4.8 C 6.37 g/m*3 4.8 C 1.6 km/h
211 18-11-2019 17:30:00 4.8 C 6.37 g/m*3 4.8 C 3.2 km/h
212 18-11-2019 17:35:00 4.8 C 6.37 g/m*3 4.8 C 3.2 km/h
213 18-11-2019 17:40:00 4.7 C 6.33 g/m*3 4.7 C 4.8 km/h
214 18-11-2019 17:45:00 4.8 C 6.37 g/m*3 4.8 C 3.2 km/h
215 18-11-2019 17:50:00 4.8 C 6.37 g/m*3 4.8 C 1.6 km/h
216 18-11-2019 17:55:00 4.7 C 6.33 g/m*3 4.7 C 4.8 km/h
217 18-11-2019 18:00:00 4.7 C 6.33 g/m*3 4.7 C 3.2 km/h
218 18-11-2019 18:05:00 4.7 C 6.33 g/m*3 4.7 C 3.2 km/h
219 18-11-2019 18:10:00 4.7 C 6.33 g/m*3 4.7 C 4.8 km/h
220 18-11-2019 18:15:00 4.7 C 6.33 g/m*3 4.7 C 1.6 km/h
221 18-11-2019 18:20:00 4.7 C 6.33 g/m*3 4.7 C 1.6 km/h
222 18-11-2019 18:25:00 4.7 C 6.33 g/m*3 4.7 C 0 km/h
223 18-11-2019 18:30:00 4.7 C 6.33 g/m*3 2.76 C 8.1 km/h
224 18-11-2019 18:35:00 4.7 C 6.33 g/m*3 3.25 C 6.4 km/h
225 18-11-2019 18:40:00 4.6 C 6.29 g/m*3 2.25 C 9.7 km/h
Sensor: Nr:Datum:Temp:Abs-Feuchte:Windchill:Wind:
Aussen-T/F 226 18-11-2019 18:45:00 4.6 C 6.29 g/m*3 4.6 C 1.6 km/h
227 18-11-2019 18:50:00 4.6 C 6.29 g/m*3 4.6 C 4.8 km/h
228 18-11-2019 18:55:00 4.5 C 6.24 g/m*3 4.5 C 3.2 km/h
229 18-11-2019 19:00:00 4.4 C 6.2 g/m*3 2.9 C 6.4 km/h
230 18-11-2019 19:05:00 4.4 C 6.2 g/m*3 1.36 C 12.9 km/h
231 18-11-2019 19:10:00 4.3 C 6.16 g/m*3 2.78 C 6.4 km/h
232 18-11-2019 19:15:00 4.2 C 6.12 g/m*3 2.17 C 8.1 km/h
233 18-11-2019 19:20:00 4.2 C 6.12 g/m*3 2.17 C 8.1 km/h
234 18-11-2019 19:25:00 4.1 C 6.08 g/m*3 2.55 C 6.4 km/h
235 18-11-2019 19:30:00 4.1 C 6.08 g/m*3 1.65 C 9.7 km/h
236 18-11-2019 19:35:00 4 C 6.04 g/m*3 1.93 C 8.1 km/h
237 18-11-2019 19:40:00 3.9 C 6 g/m*3 2.32 C 6.4 km/h
238 18-11-2019 19:45:00 3.9 C 6 g/m*3 1.06 C 11.3 km/h
239 18-11-2019 19:50:00 3.8 C 5.96 g/m*3 3.8 C 4.8 km/h
240 18-11-2019 19:55:00 3.7 C 5.92 g/m*3 1.18 C 9.7 km/h
241 18-11-2019 20:00:00 3.6 C 5.88 g/m*3 1.46 C 8.1 km/h
242 18-11-2019 20:05:00 3.5 C 5.84 g/m*3 1.34 C 8.1 km/h
243 18-11-2019 20:10:00 3.4 C 5.8 g/m*3 1.75 C 6.4 km/h
244 18-11-2019 20:15:00 3.4 C 5.8 g/m*3 1.75 C 6.4 km/h
245 18-11-2019 20:20:00 3.3 C 5.76 g/m*3 0.7 C 9.7 km/h
246 18-11-2019 20:25:00 3.3 C 5.76 g/m*3 0.02 C 12.9 km/h
247 18-11-2019 20:30:00 3.2 C 5.72 g/m*3 -0.39 C 14.5 km/h
248 18-11-2019 20:35:00 3.2 C 5.72 g/m*3 0.22 C 11.3 km/h
249 18-11-2019 20:40:00 3.1 C 5.69 g/m*3 0.46 C 9.7 km/h
250 18-11-2019 20:45:00 3 C 5.65 g/m*3 -0.02 C 11.3 km/h
Sensor: Nr:Datum:Temp:Abs-Feuchte:Windchill:Wind:
Aussen-T/F 251 18-11-2019 20:50:00 2.9 C 5.61 g/m*3 0.22 C 9.7 km/h
252 18-11-2019 20:55:00 2.9 C 5.61 g/m*3 0.22 C 9.7 km/h
253 18-11-2019 21:00:00 2.8 C 5.57 g/m*3 -0.59 C 12.9 km/h
254 18-11-2019 21:05:00 2.7 C 5.54 g/m*3 -0.02 C 9.7 km/h
255 18-11-2019 21:10:00 2.7 C 5.54 g/m*3 -0.38 C 11.3 km/h
256 18-11-2019 21:15:00 2.6 C 5.5 g/m*3 -0.14 C 9.7 km/h
257 18-11-2019 21:20:00 2.6 C 5.5 g/m*3 -0.5 C 11.3 km/h
258 18-11-2019 21:25:00 2.5 C 5.52 g/m*3 -0.26 C 9.7 km/h
259 18-11-2019 21:30:00 2.4 C 5.42 g/m*3 -0.37 C 9.7 km/h
260 18-11-2019 21:35:00 2.4 C 5.48 g/m*3 -0.37 C 9.7 km/h
261 18-11-2019 21:40:00 2.4 C 5.48 g/m*3 -0.74 C 11.3 km/h
262 18-11-2019 21:45:00 2.4 C 5.48 g/m*3 -1.07 C 12.9 km/h
263 18-11-2019 21:50:00 2.5 C 5.52 g/m*3 -0.95 C 12.9 km/h
264 18-11-2019 21:55:00 2.7 C 5.59 g/m*3 -0.38 C 11.3 km/h
265 18-11-2019 22:00:00 2.7 C 5.59 g/m*3 -0.38 C 11.3 km/h
266 18-11-2019 22:05:00 2.7 C 5.59 g/m*3 -0.38 C 11.3 km/h
267 18-11-2019 22:10:00 2.8 C 5.63 g/m*3 0.52 C 8.1 km/h
268 18-11-2019 22:15:00 2.8 C 5.63 g/m*3 -0.59 C 12.9 km/h
269 18-11-2019 22:20:00 2.8 C 5.63 g/m*3 0.52 C 8.1 km/h
270 18-11-2019 22:25:00 2.9 C 5.67 g/m*3 0.22 C 9.7 km/h
271 18-11-2019 22:30:00 2.9 C 5.67 g/m*3 -0.14 C 11.3 km/h
272 18-11-2019 22:35:00 3 C 5.71 g/m*3 0.76 C 8.1 km/h
273 18-11-2019 22:40:00 3 C 5.71 g/m*3 0.76 C 8.1 km/h
274 18-11-2019 22:45:00 3 C 5.71 g/m*3 0.76 C 8.1 km/h
275 18-11-2019 22:50:00 3 C 5.71 g/m*3 -0.63 C 14.5 km/h
Sensor: Nr:Datum:Temp:Abs-Feuchte:Windchill:Wind:
Aussen-T/F 276 18-11-2019 22:55:00 3 C 5.71 g/m*3 -0.02 C 11.3 km/h
277 18-11-2019 23:00:00 3.1 C 5.75 g/m*3 0.46 C 9.7 km/h
278 18-11-2019 23:05:00 3 C 5.71 g/m*3 0.76 C 8.1 km/h
279 18-11-2019 23:10:00 3.1 C 5.75 g/m*3 -0.22 C 12.9 km/h
280 18-11-2019 23:15:00 3.1 C 5.75 g/m*3 0.1 C 11.3 km/h
281 18-11-2019 23:20:00 3.2 C 5.79 g/m*3 -0.65 C 16.1 km/h
282 18-11-2019 23:25:00 3.2 C 5.79 g/m*3 0.22 C 11.3 km/h
283 18-11-2019 23:30:00 3.3 C 5.82 g/m*3 0.02 C 12.9 km/h
284 18-11-2019 23:35:00 3.3 C 5.82 g/m*3 0.02 C 12.9 km/h
285 18-11-2019 23:40:00 3.4 C 5.86 g/m*3 1.23 C 8.1 km/h
286 18-11-2019 23:45:00 3.4 C 5.86 g/m*3 1.23 C 8.1 km/h
287 18-11-2019 23:50:00 3.4 C 5.86 g/m*3 -0.4 C 16.1 km/h
288 18-11-2019 23:55:00 3.5 C 5.9 g/m*3 0.58 C 11.3 km/h
289 19-11-2019 00:00:00 3.6 C 5.94 g/m*3 0.39 C 12.9 km/h
290 19-11-2019 00:05:00 3.6 C 5.94 g/m*3 0.39 C 12.9 km/h
291 19-11-2019 00:10:00 3.6 C 5.94 g/m*3 0.11 C 14.5 km/h
292 19-11-2019 00:15:00 3.6 C 5.94 g/m*3 1.46 C 8.1 km/h
293 19-11-2019 00:20:00 3.7 C 5.98 g/m*3 1.18 C 9.7 km/h
294 19-11-2019 00:25:00 3.7 C 5.98 g/m*3 1.58 C 8.1 km/h
295 19-11-2019 00:30:00 3.7 C 5.98 g/m*3 0.82 C 11.3 km/h
296 19-11-2019 00:35:00 3.7 C 5.98 g/m*3 1.58 C 8.1 km/h
297 19-11-2019 00:40:00 3.8 C 6.02 g/m*3 1.29 C 9.7 km/h
298 19-11-2019 00:45:00 3.8 C 6.02 g/m*3 1.29 C 9.7 km/h
299 19-11-2019 00:50:00 3.8 C 6.02 g/m*3 0.63 C 12.9 km/h
300 19-11-2019 00:55:00 3.8 C 6.02 g/m*3 2.21 C 6.4 km/h
Sensor: Nr:Datum:Temp:Abs-Feuchte:Windchill:Wind:
Aussen-T/F 301 19-11-2019 01:00:00 3.9 C 6.06 g/m*3 3.9 C 4.8 km/h
302 19-11-2019 01:05:00 3.9 C 6.06 g/m*3 1.06 C 11.3 km/h
303 19-11-2019 01:10:00 3.9 C 6.06 g/m*3 1.82 C 8.1 km/h
304 19-11-2019 01:15:00 4 C 6.1 g/m*3 1.93 C 8.1 km/h
305 19-11-2019 01:20:00 4 C 6.1 g/m*3 2.44 C 6.4 km/h
306 19-11-2019 01:25:00 4 C 6.1 g/m*3 1.93 C 8.1 km/h
307 19-11-2019 01:30:00 4 C 6.1 g/m*3 1.53 C 9.7 km/h
308 19-11-2019 01:35:00 4 C 6.1 g/m*3 1.93 C 8.1 km/h
309 19-11-2019 01:40:00 4.1 C 6.14 g/m*3 4.1 C 4.8 km/h
310 19-11-2019 01:45:00 4.1 C 6.14 g/m*3 2.05 C 8.1 km/h
311 19-11-2019 01:50:00 4.1 C 6.14 g/m*3 4.1 C 3.2 km/h
312 19-11-2019 01:55:00 4.2 C 6.19 g/m*3 2.67 C 6.4 km/h
313 19-11-2019 02:00:00 4.2 C 6.19 g/m*3 4.2 C 4.8 km/h
314 19-11-2019 02:05:00 4.2 C 6.19 g/m*3 4.2 C 3.2 km/h
315 19-11-2019 02:10:00 4.2 C 6.19 g/m*3 4.2 C 4.8 km/h
316 19-11-2019 02:15:00 4.2 C 6.19 g/m*3 1.77 C 9.7 km/h
317 19-11-2019 02:20:00 4.2 C 6.19 g/m*3 1.43 C 11.3 km/h
318 19-11-2019 02:25:00 4.2 C 6.19 g/m*3 2.67 C 6.4 km/h
319 19-11-2019 02:30:00 4.2 C 6.19 g/m*3 2.17 C 8.1 km/h
320 19-11-2019 02:35:00 4.2 C 6.19 g/m*3 4.2 C 4.8 km/h
321 19-11-2019 02:40:00 4.2 C 6.19 g/m*3 4.2 C 4.8 km/h
322 19-11-2019 02:45:00 4.2 C 6.19 g/m*3 4.2 C 4.8 km/h
323 19-11-2019 02:50:00 4.2 C 6.19 g/m*3 4.2 C 3.2 km/h
324 19-11-2019 02:55:00 4.2 C 6.19 g/m*3 4.2 C 4.8 km/h
325 19-11-2019 03:00:00 4.2 C 6.19 g/m*3 4.2 C 4.8 km/h
Sensor: Nr:Datum:Temp:Abs-Feuchte:Windchill:Wind:
Aussen-T/F 326 19-11-2019 03:05:00 4.2 C 6.19 g/m*3 4.2 C 0 km/h
327 19-11-2019 03:10:00 4.2 C 6.19 g/m*3 4.2 C 1.6 km/h
328 19-11-2019 03:15:00 4.2 C 6.19 g/m*3 2.67 C 6.4 km/h
329 19-11-2019 03:20:00 4.3 C 6.23 g/m*3 4.3 C 1.6 km/h
330 19-11-2019 03:25:00 4.3 C 6.23 g/m*3 4.3 C 1.6 km/h
331 19-11-2019 03:30:00 4.2 C 6.19 g/m*3 4.2 C 3.2 km/h
332 19-11-2019 03:35:00 4.3 C 6.23 g/m*3 4.3 C 1.6 km/h
333 19-11-2019 03:40:00 4.3 C 6.23 g/m*3 2.78 C 6.4 km/h
334 19-11-2019 03:45:00 4.3 C 6.23 g/m*3 2.78 C 6.4 km/h
335 19-11-2019 03:50:00 4.3 C 6.23 g/m*3 4.3 C 1.6 km/h
336 19-11-2019 03:55:00 4.3 C 6.23 g/m*3 4.3 C 3.2 km/h
337 19-11-2019 04:00:00 4.3 C 6.23 g/m*3 1.89 C 9.7 km/h
338 19-11-2019 04:05:00 4.3 C 6.23 g/m*3 1.89 C 9.7 km/h
339 19-11-2019 04:10:00 4.3 C 6.23 g/m*3 1.89 C 9.7 km/h
340 19-11-2019 04:15:00 4.4 C 6.27 g/m*3 2.9 C 6.4 km/h
341 19-11-2019 04:20:00 4.4 C 6.27 g/m*3 2.9 C 6.4 km/h
342 19-11-2019 04:25:00 4.4 C 6.27 g/m*3 4.4 C 1.6 km/h
343 19-11-2019 04:30:00 4.3 C 6.23 g/m*3 2.29 C 8.1 km/h
344 19-11-2019 04:35:00 4.3 C 6.23 g/m*3 2.29 C 8.1 km/h
345 19-11-2019 04:40:00 4.3 C 6.23 g/m*3 4.3 C 3.2 km/h
346 19-11-2019 04:45:00 4.3 C 6.23 g/m*3 2.29 C 8.1 km/h
347 19-11-2019 04:50:00 4.3 C 6.23 g/m*3 2.29 C 8.1 km/h
348 19-11-2019 04:55:00 4.3 C 6.23 g/m*3 4.3 C 3.2 km/h
349 19-11-2019 05:00:00 4.2 C 6.19 g/m*3 4.2 C 3.2 km/h
350 19-11-2019 05:05:00 4.1 C 6.14 g/m*3 4.1 C 0 km/h
Sensor: Nr:Datum:Temp:Abs-Feuchte:Windchill:Wind:
Aussen-T/F 351 19-11-2019 05:10:00 3.9 C 6.06 g/m*3 3.9 C 0 km/h
352 19-11-2019 05:15:00 3.8 C 6.02 g/m*3 3.8 C 0 km/h
353 19-11-2019 05:20:00 3.6 C 5.88 g/m*3 3.6 C 0 km/h
354 19-11-2019 05:25:00 3.5 C 5.9 g/m*3 3.5 C 0 km/h
355 19-11-2019 05:30:00 3.3 C 5.76 g/m*3 3.3 C 0 km/h
356 19-11-2019 05:35:00 3.2 C 5.79 g/m*3 3.2 C 0 km/h
357 19-11-2019 05:40:00 3.1 C 5.69 g/m*3 3.1 C 0 km/h
358 19-11-2019 05:45:00 3.1 C 5.75 g/m*3 3.1 C 0 km/h
359 19-11-2019 05:50:00 3 C 5.71 g/m*3 3 C 0 km/h
360 19-11-2019 05:55:00 2.9 C 5.67 g/m*3 1.17 C 6.4 km/h
361 19-11-2019 06:00:00 2.8 C 5.63 g/m*3 2.8 C 0 km/h
362 19-11-2019 06:05:00 2.8 C 5.63 g/m*3 2.8 C 4.8 km/h
363 19-11-2019 06:10:00 2.8 C 5.63 g/m*3 2.8 C 3.2 km/h
364 19-11-2019 06:15:00 3 C 5.71 g/m*3 3 C 3.2 km/h
365 19-11-2019 06:20:00 3 C 5.71 g/m*3 3 C 1.6 km/h
366 19-11-2019 06:25:00 2.9 C 5.67 g/m*3 2.9 C 1.6 km/h
367 19-11-2019 06:30:00 2.8 C 5.63 g/m*3 2.8 C 4.8 km/h
368 19-11-2019 06:35:00 2.8 C 5.63 g/m*3 2.8 C 4.8 km/h
369 19-11-2019 06:40:00 2.8 C 5.63 g/m*3 2.8 C 3.2 km/h
370 19-11-2019 06:45:00 2.8 C 5.63 g/m*3 2.8 C 1.6 km/h
371 19-11-2019 06:50:00 2.8 C 5.69 g/m*3 2.8 C 3.2 km/h
372 19-11-2019 06:55:00 2.9 C 5.73 g/m*3 2.9 C 0 km/h
373 19-11-2019 07:00:00 2.9 C 5.73 g/m*3 2.9 C 0 km/h
374 19-11-2019 07:05:00 3 C 5.77 g/m*3 3 C 0 km/h
375 19-11-2019 07:10:00 3.1 C 5.81 g/m*3 1.4 C 6.4 km/h
Sensor: Nr:Datum:Temp:Abs-Feuchte:Windchill:Wind:
Aussen-T/F 376 19-11-2019 07:15:00 3.1 C 5.81 g/m*3 3.1 C 0 km/h
377 19-11-2019 07:20:00 3.2 C 5.85 g/m*3 3.2 C 0 km/h
378 19-11-2019 07:25:00 3.2 C 5.85 g/m*3 3.2 C 0 km/h
379 19-11-2019 07:30:00 3.1 C 5.81 g/m*3 3.1 C 0 km/h
380 19-11-2019 07:35:00 2.9 C 5.73 g/m*3 2.9 C 0 km/h
381 19-11-2019 07:40:00 2.8 C 5.63 g/m*3 2.8 C 0 km/h
382 19-11-2019 07:45:00 2.7 C 5.59 g/m*3 2.7 C 0 km/h
383 19-11-2019 07:50:00 2.6 C 5.56 g/m*3 2.6 C 0 km/h
384 19-11-2019 07:55:00 2.6 C 5.56 g/m*3 2.6 C 0 km/h
385 19-11-2019 08:00:00 2.6 C 5.61 g/m*3 2.6 C 1.6 km/h
386 19-11-2019 08:05:00 2.7 C 5.65 g/m*3 2.7 C 0 km/h
387 19-11-2019 08:10:00 2.8 C 5.69 g/m*3 2.8 C 0 km/h
388 19-11-2019 08:15:00 2.9 C 5.73 g/m*3 2.9 C 0 km/h
389 19-11-2019 08:20:00 3 C 5.77 g/m*3 3 C 0 km/h
390 19-11-2019 08:25:00 3.2 C 5.85 g/m*3 1.51 C 6.4 km/h
391 19-11-2019 08:30:00 3.4 C 5.92 g/m*3 3.4 C 4.8 km/h
392 19-11-2019 08:35:00 3.5 C 5.96 g/m*3 3.5 C 4.8 km/h
393 19-11-2019 08:40:00 3.5 C 5.96 g/m*3 3.5 C 4.8 km/h
394 19-11-2019 08:45:00 3.5 C 5.96 g/m*3 3.5 C 1.6 km/h
395 19-11-2019 08:50:00 3.5 C 5.96 g/m*3 3.5 C 0 km/h
396 19-11-2019 08:55:00 3.6 C 6 g/m*3 3.6 C 1.6 km/h
397 19-11-2019 09:00:00 3.7 C 6.04 g/m*3 3.7 C 3.2 km/h
398 19-11-2019 09:05:00 3.9 C 6.13 g/m*3 1.82 C 8.1 km/h
399 19-11-2019 09:10:00 4 C 6.17 g/m*3 2.44 C 6.4 km/h
400 19-11-2019 09:15:00 4 C 6.17 g/m*3 2.44 C 6.4 km/h
Sensor: Nr:Datum:Temp:Abs-Feuchte:Windchill:Wind:
Aussen-T/F 401 19-11-2019 09:20:00 4 C 6.17 g/m*3 4 C 4.8 km/h
402 19-11-2019 09:25:00 4.1 C 6.21 g/m*3 4.1 C 4.8 km/h
403 19-11-2019 09:30:00 4.2 C 6.25 g/m*3 2.67 C 6.4 km/h
404 19-11-2019 09:35:00 4.2 C 6.25 g/m*3 1.77 C 9.7 km/h
405 19-11-2019 09:40:00 4.2 C 6.25 g/m*3 4.2 C 4.8 km/h
406 19-11-2019 09:45:00 4.1 C 6.21 g/m*3 4.1 C 4.8 km/h
407 19-11-2019 09:50:00 4 C 6.1 g/m*3 4 C 4.8 km/h
408 19-11-2019 09:55:00 3.9 C 6.06 g/m*3 3.9 C 1.6 km/h
409 19-11-2019 10:00:00 3.9 C 6.06 g/m*3 3.9 C 3.2 km/h
410 19-11-2019 10:05:00 3.9 C 6.06 g/m*3 3.9 C 4.8 km/h
411 19-11-2019 10:10:00 3.9 C 6.06 g/m*3 3.9 C 1.6 km/h
412 19-11-2019 10:15:00 3.9 C 6.06 g/m*3 3.9 C 0 km/h
413 19-11-2019 10:20:00 3.9 C 6.06 g/m*3 3.9 C 1.6 km/h
414 19-11-2019 10:25:00 4 C 6.17 g/m*3 4 C 0 km/h
415 19-11-2019 10:30:00 4.1 C 6.21 g/m*3 4.1 C 1.6 km/h
416 19-11-2019 10:35:00 4.1 C 6.21 g/m*3 4.1 C 3.2 km/h
417 19-11-2019 10:40:00 4.1 C 6.21 g/m*3 4.1 C 1.6 km/h
418 19-11-2019 10:45:00 4.1 C 6.21 g/m*3 4.1 C 1.6 km/h
419 19-11-2019 10:50:00 4.1 C 6.21 g/m*3 4.1 C 3.2 km/h
420 19-11-2019 10:55:00 4.1 C 6.21 g/m*3 4.1 C 1.6 km/h
421 19-11-2019 11:00:00 4.2 C 6.25 g/m*3 4.2 C 1.6 km/h
422 19-11-2019 11:05:00 4.2 C 6.25 g/m*3 4.2 C 1.6 km/h
423 19-11-2019 11:10:00 4.2 C 6.25 g/m*3 4.2 C 0 km/h
424 19-11-2019 11:15:00 4.3 C 6.29 g/m*3 4.3 C 0 km/h
425 19-11-2019 11:20:00 4.4 C 6.33 g/m*3 4.4 C 1.6 km/h
Sensor: Nr:Datum:Temp:Abs-Feuchte:Windchill:Wind:
Aussen-T/F 426 19-11-2019 11:25:00 4.5 C 6.38 g/m*3 4.5 C 1.6 km/h
427 19-11-2019 11:30:00 4.6 C 6.42 g/m*3 4.6 C 3.2 km/h
428 19-11-2019 11:35:00 4.7 C 6.46 g/m*3 4.7 C 0 km/h
429 19-11-2019 11:40:00 4.9 C 6.55 g/m*3 2.27 C 11.3 km/h
430 19-11-2019 11:45:00 5.2 C 6.68 g/m*3 3.82 C 6.4 km/h
431 19-11-2019 11:50:00 5.3 C 6.72 g/m*3 3.46 C 8.1 km/h
432 19-11-2019 11:55:00 5.4 C 6.7 g/m*3 2.87 C 11.3 km/h
433 19-11-2019 12:00:00 5.6 C 6.79 g/m*3 5.6 C 4.8 km/h
434 19-11-2019 12:05:00 5.7 C 6.76 g/m*3 4.4 C 6.4 km/h
435 19-11-2019 12:10:00 5.8 C 6.66 g/m*3 4.05 C 8.1 km/h
436 19-11-2019 12:15:00 6 C 6.68 g/m*3 3.92 C 9.7 km/h
437 19-11-2019 12:20:00 6.2 C 6.69 g/m*3 4.98 C 6.4 km/h
438 19-11-2019 12:25:00 6.3 C 6.74 g/m*3 3.96 C 11.3 km/h
439 19-11-2019 12:30:00 6.4 C 6.71 g/m*3 6.4 C 4.8 km/h
440 19-11-2019 12:35:00 6.6 C 6.79 g/m*3 5.44 C 6.4 km/h
441 19-11-2019 12:40:00 6.5 C 6.75 g/m*3 4.87 C 8.1 km/h
442 19-11-2019 12:45:00 6.4 C 6.71 g/m*3 5.21 C 6.4 km/h
443 19-11-2019 12:50:00 6.3 C 6.66 g/m*3 5.1 C 6.4 km/h
444 19-11-2019 12:55:00 6.3 C 6.66 g/m*3 4.64 C 8.1 km/h
445 19-11-2019 13:00:00 6.4 C 6.71 g/m*3 6.4 C 4.8 km/h
446 19-11-2019 13:05:00 6.4 C 6.63 g/m*3 6.4 C 3.2 km/h
447 19-11-2019 13:10:00 6.4 C 6.63 g/m*3 6.4 C 4.8 km/h
448 19-11-2019 13:15:00 6.3 C 6.51 g/m*3 5.1 C 6.4 km/h
449 19-11-2019 13:20:00 6.3 C 6.51 g/m*3 4.27 C 9.7 km/h
450 19-11-2019 13:25:00 6.3 C 6.51 g/m*3 4.64 C 8.1 km/h
Sensor: Nr:Datum:Temp:Abs-Feuchte:Windchill:Wind:
Aussen-T/F 451 19-11-2019 13:30:00 6.3 C 6.51 g/m*3 6.3 C 4.8 km/h
452 19-11-2019 13:35:00 6.3 C 6.51 g/m*3 4.64 C 8.1 km/h
453 19-11-2019 13:40:00 6.3 C 6.51 g/m*3 6.3 C 3.2 km/h
454 19-11-2019 13:45:00 6.3 C 6.51 g/m*3 5.1 C 6.4 km/h
455 19-11-2019 13:50:00 6.4 C 6.56 g/m*3 4.75 C 8.1 km/h
456 19-11-2019 13:55:00 6.5 C 6.52 g/m*3 4.87 C 8.1 km/h
457 19-11-2019 14:00:00 6.5 C 6.45 g/m*3 5.33 C 6.4 km/h
458 19-11-2019 14:05:00 6.6 C 6.49 g/m*3 4.99 C 8.1 km/h
459 19-11-2019 14:10:00 6.7 C 6.61 g/m*3 5.56 C 6.4 km/h
460 19-11-2019 14:15:00 6.7 C 6.53 g/m*3 5.56 C 6.4 km/h
461 19-11-2019 14:20:00 6.6 C 6.49 g/m*3 6.6 C 4.8 km/h
462 19-11-2019 14:25:00 6.6 C 6.57 g/m*3 4.99 C 8.1 km/h
463 19-11-2019 14:30:00 6.7 C 6.61 g/m*3 6.7 C 3.2 km/h
464 19-11-2019 14:35:00 6.6 C 6.57 g/m*3 5.44 C 6.4 km/h
465 19-11-2019 14:40:00 6.7 C 6.69 g/m*3 6.7 C 3.2 km/h
466 19-11-2019 14:45:00 6.7 C 6.69 g/m*3 6.7 C 3.2 km/h
467 19-11-2019 14:50:00 6.6 C 6.57 g/m*3 5.44 C 6.4 km/h
468 19-11-2019 14:55:00 6.6 C 6.64 g/m*3 6.6 C 4.8 km/h
469 19-11-2019 15:00:00 6.7 C 6.69 g/m*3 6.7 C 4.8 km/h
470 19-11-2019 15:05:00 6.6 C 6.64 g/m*3 6.6 C 0 km/h
471 19-11-2019 15:10:00 6.7 C 6.76 g/m*3 6.7 C 1.6 km/h
472 19-11-2019 15:15:00 6.7 C 6.76 g/m*3 6.7 C 0 km/h
473 19-11-2019 15:20:00 6.7 C 6.84 g/m*3 6.7 C 0 km/h
474 19-11-2019 15:25:00 6.7 C 6.84 g/m*3 6.7 C 0 km/h
475 19-11-2019 15:30:00 6.7 C 6.91 g/m*3 6.7 C 0 km/h
Sensor: Nr:Datum:Temp:Abs-Feuchte:Windchill:Wind:
Aussen-T/F 476 19-11-2019 15:35:00 6.6 C 6.87 g/m*3 6.6 C 0 km/h
477 19-11-2019 15:40:00 6.5 C 6.82 g/m*3 6.5 C 0 km/h
478 19-11-2019 15:45:00 6.4 C 6.78 g/m*3 6.4 C 1.6 km/h
479 19-11-2019 15:50:00 6.2 C 6.69 g/m*3 6.2 C 1.6 km/h
480 19-11-2019 15:55:00 6.1 C 6.65 g/m*3 6.1 C 1.6 km/h
481 19-11-2019 16:00:00 6 C 6.6 g/m*3 6 C 1.6 km/h
482 19-11-2019 16:05:00 5.9 C 6.63 g/m*3 5.9 C 0 km/h
483 19-11-2019 16:10:00 5.9 C 6.63 g/m*3 5.9 C 1.6 km/h
484 19-11-2019 16:15:00 5.8 C 6.66 g/m*3 5.8 C 3.2 km/h
485 19-11-2019 16:20:00 5.7 C 6.62 g/m*3 5.7 C 4.8 km/h
486 19-11-2019 16:25:00 5.7 C 6.62 g/m*3 5.7 C 3.2 km/h
487 19-11-2019 16:30:00 5.5 C 6.53 g/m*3 5.5 C 4.8 km/h
488 19-11-2019 16:35:00 5.4 C 6.49 g/m*3 5.4 C 4.8 km/h
489 19-11-2019 16:40:00 5.3 C 6.45 g/m*3 5.3 C 1.6 km/h
490 19-11-2019 16:45:00 5.2 C 6.4 g/m*3 5.2 C 1.6 km/h
491 19-11-2019 16:50:00 5.1 C 6.36 g/m*3 5.1 C 1.6 km/h
492 19-11-2019 16:55:00 5 C 6.32 g/m*3 5 C 1.6 km/h
493 19-11-2019 17:00:00 4.8 C 6.24 g/m*3 4.8 C 1.6 km/h
494 19-11-2019 17:05:00 4.7 C 6.19 g/m*3 4.7 C 0 km/h
495 19-11-2019 17:10:00 4.6 C 6.15 g/m*3 4.6 C 1.6 km/h
496 19-11-2019 17:15:00 4.4 C 6.07 g/m*3 4.4 C 0 km/h
497 19-11-2019 17:20:00 4.3 C 6.1 g/m*3 4.3 C 3.2 km/h
498 19-11-2019 17:25:00 4.2 C 6.06 g/m*3 4.2 C 1.6 km/h
499 19-11-2019 17:30:00 4.1 C 6.02 g/m*3 4.1 C 0 km/h
500 19-11-2019 17:35:00 4 C 5.98 g/m*3 4 C 3.2 km/h
Sensor: Nr:Datum:Temp:Abs-Feuchte:Windchill:Wind:
Aussen-T/F 501 19-11-2019 17:40:00 3.9 C 5.94 g/m*3 3.9 C 0 km/h
502 19-11-2019 17:45:00 3.8 C 5.9 g/m*3 3.8 C 0 km/h
503 19-11-2019 17:50:00 3.7 C 5.86 g/m*3 3.7 C 1.6 km/h
504 19-11-2019 17:55:00 3.6 C 5.82 g/m*3 3.6 C 3.2 km/h
505 19-11-2019 18:00:00 3.5 C 5.78 g/m*3 3.5 C 1.6 km/h
506 19-11-2019 18:05:00 3.4 C 5.74 g/m*3 3.4 C 1.6 km/h
507 19-11-2019 18:10:00 3.3 C 5.7 g/m*3 3.3 C 0 km/h
508 19-11-2019 18:15:00 3.2 C 5.72 g/m*3 3.2 C 0 km/h
509 19-11-2019 18:20:00 3.2 C 5.72 g/m*3 3.2 C 0 km/h
510 19-11-2019 18:25:00 3.2 C 5.72 g/m*3 3.2 C 0 km/h
511 19-11-2019 18:30:00 3.2 C 5.72 g/m*3 3.2 C 0 km/h
512 19-11-2019 18:35:00 3.2 C 5.72 g/m*3 3.2 C 0 km/h
513 19-11-2019 18:40:00 3.3 C 5.76 g/m*3 3.3 C 0 km/h
514 19-11-2019 18:45:00 3.4 C 5.86 g/m*3 3.4 C 0 km/h
515 19-11-2019 18:50:00 3.5 C 5.9 g/m*3 3.5 C 0 km/h
516 19-11-2019 18:55:00 3.5 C 5.9 g/m*3 3.5 C 0 km/h
517 19-11-2019 19:00:00 3.4 C 5.8 g/m*3 3.4 C 0 km/h
518 19-11-2019 19:05:00 3.3 C 5.76 g/m*3 3.3 C 0 km/h
519 19-11-2019 19:10:00 3.1 C 5.69 g/m*3 3.1 C 0 km/h
520 19-11-2019 19:15:00 2.9 C 5.61 g/m*3 2.9 C 0 km/h
521 19-11-2019 19:20:00 2.8 C 5.57 g/m*3 2.8 C 0 km/h
522 19-11-2019 19:25:00 2.7 C 5.54 g/m*3 2.7 C 1.6 km/h
523 19-11-2019 19:30:00 2.7 C 5.54 g/m*3 2.7 C 0 km/h
524 19-11-2019 19:35:00 2.6 C 5.5 g/m*3 2.6 C 0 km/h
525 19-11-2019 19:40:00 2.5 C 5.52 g/m*3 2.5 C 0 km/h
Sensor: Nr:Datum:Temp:Abs-Feuchte:Windchill:Wind:
Aussen-T/F 526 19-11-2019 19:45:00 2.4 C 5.42 g/m*3 2.4 C 0 km/h
527 19-11-2019 19:50:00 2.3 C 5.39 g/m*3 2.3 C 0 km/h
528 19-11-2019 19:55:00 2.2 C 5.35 g/m*3 2.2 C 0 km/h
529 19-11-2019 20:00:00 2.1 C 5.31 g/m*3 2.1 C 0 km/h
530 19-11-2019 20:05:00 1.9 C 5.24 g/m*3 1.9 C 0 km/h
531 19-11-2019 20:10:00 1.9 C 5.3 g/m*3 1.9 C 0 km/h
532 19-11-2019 20:15:00 2 C 5.33 g/m*3 2 C 0 km/h
533 19-11-2019 20:20:00 2.1 C 5.37 g/m*3 2.1 C 0 km/h
534 19-11-2019 20:25:00 2.2 C 5.41 g/m*3 2.2 C 0 km/h
535 19-11-2019 20:30:00 2.3 C 5.44 g/m*3 2.3 C 0 km/h
536 19-11-2019 20:35:00 2.4 C 5.54 g/m*3 2.4 C 1.6 km/h
537 19-11-2019 20:40:00 2.6 C 5.61 g/m*3 2.6 C 1.6 km/h
538 19-11-2019 20:45:00 2.7 C 5.65 g/m*3 2.7 C 1.6 km/h
539 19-11-2019 20:50:00 2.7 C 5.59 g/m*3 2.7 C 0 km/h
540 19-11-2019 20:55:00 2.7 C 5.65 g/m*3 2.7 C 0 km/h
541 19-11-2019 21:00:00 2.8 C 5.69 g/m*3 2.8 C 4.8 km/h
542 19-11-2019 21:05:00 2.8 C 5.69 g/m*3 2.8 C 4.8 km/h
543 19-11-2019 21:10:00 2.8 C 5.69 g/m*3 2.8 C 3.2 km/h
544 19-11-2019 21:15:00 2.8 C 5.69 g/m*3 2.8 C 1.6 km/h
545 19-11-2019 21:20:00 2.8 C 5.69 g/m*3 0.52 C 8.1 km/h
546 19-11-2019 21:25:00 2.8 C 5.69 g/m*3 2.8 C 1.6 km/h
547 19-11-2019 21:30:00 2.8 C 5.63 g/m*3 2.8 C 0 km/h
548 19-11-2019 21:35:00 2.8 C 5.63 g/m*3 2.8 C 0 km/h
549 19-11-2019 21:40:00 2.8 C 5.63 g/m*3 2.8 C 0 km/h
550 19-11-2019 21:45:00 2.8 C 5.63 g/m*3 2.8 C 0 km/h
Sensor: Nr:Datum:Temp:Abs-Feuchte:Windchill:Wind:
Aussen-T/F 551 19-11-2019 21:50:00 2.8 C 5.69 g/m*3 2.8 C 1.6 km/h
552 19-11-2019 21:55:00 2.9 C 5.73 g/m*3 2.9 C 0 km/h
553 19-11-2019 22:00:00 2.9 C 5.73 g/m*3 2.9 C 0 km/h
554 19-11-2019 22:05:00 2.8 C 5.69 g/m*3 2.8 C 0 km/h
555 19-11-2019 22:10:00 2.8 C 5.63 g/m*3 2.8 C 0 km/h
556 19-11-2019 22:15:00 2.8 C 5.63 g/m*3 2.8 C 0 km/h
557 19-11-2019 22:20:00 2.7 C 5.59 g/m*3 2.7 C 0 km/h
558 19-11-2019 22:25:00 2.5 C 5.52 g/m*3 2.5 C 1.6 km/h
559 19-11-2019 22:30:00 2.4 C 5.48 g/m*3 2.4 C 0 km/h
560 19-11-2019 22:35:00 2.3 C 5.44 g/m*3 2.3 C 0 km/h
561 19-11-2019 22:40:00 2.2 C 5.41 g/m*3 2.2 C 1.6 km/h
562 19-11-2019 22:45:00 2.1 C 5.37 g/m*3 2.1 C 1.6 km/h
563 19-11-2019 22:50:00 2.1 C 5.37 g/m*3 2.1 C 0 km/h
564 19-11-2019 22:55:00 1.8 C 5.26 g/m*3 1.8 C 0 km/h
565 19-11-2019 23:00:00 1.7 C 5.23 g/m*3 1.7 C 0 km/h
566 19-11-2019 23:05:00 1.6 C 5.19 g/m*3 1.6 C 0 km/h
567 19-11-2019 23:10:00 1.4 C 5.12 g/m*3 1.4 C 0 km/h
568 19-11-2019 23:15:00 1.3 C 5.09 g/m*3 1.3 C 0 km/h
569 19-11-2019 23:20:00 1.2 C 5.05 g/m*3 1.2 C 0 km/h
570 19-11-2019 23:25:00 1.1 C 5.02 g/m*3 1.1 C 0 km/h
571 19-11-2019 23:30:00 1 C 4.98 g/m*3 1 C 0 km/h
572 19-11-2019 23:35:00 0.9 C 4.95 g/m*3 0.9 C 0 km/h
573 19-11-2019 23:40:00 0.8 C 4.91 g/m*3 0.8 C 0 km/h
574 19-11-2019 23:45:00 0.8 C 4.91 g/m*3 0.8 C 0 km/h
575 19-11-2019 23:50:00 0.8 C 4.91 g/m*3 0.8 C 0 km/h
Sensor: Nr:Datum:Temp:Abs-Feuchte:Windchill:Wind:
Aussen-T/F 576 19-11-2019 23:55:00 0.7 C 4.88 g/m*3 0.7 C 0 km/h

Legende:
   Min
   Max


Maximal/Minimal-Werte vom 18.11.2019 - 19.11.2019

Sensor Min Max Avg
Temp
(Aussen-T/F)
0.7 °C
19-11-2019  23:55:00
6.7 °C
19-11-2019  14:10:00
4.15 °C
Abs-Feuchte
(Aussen-T/F)
4.88 g/m*3
19-11-2019  23:55:00
6.91 g/m*3
19-11-2019  15:30:00
6.13 g/m*3
Windchill
(Aussen-T/F)
-1.07 C
18-11-2019  21:45:00
6.7 C
19-11-2019  14:30:00
3.5 C

Die Daten stammen von einer Davis Vantage Pro 2 Wetter-Station und werden unter Linux mit der Software wview2wettercgi und aufbereitet. Alle Angaben erfolgen ohne Gewähr für ihre Vollständigkeit oder Richtigkeit.
Kontakt: Rainer Krienke krienke@uni-koblenz.de . Meine Webseiten an der Uni Koblenz oder privat.
Version: $Revision: 0.78 $